Rechercher aéroport 
image banner adimage banner adimage banner ad
image banner ad

CN30 - Oceanside Fire Department

Situé à Oceanside, United States

ICAO - CN30, IATA -

Données fournies par Airmate  

Information générale

Coordonnées: N33°12'42" W117°21'15"
Élévation : 30 feet MSL.
 
Voir autres Aéroports à California

Données opérationnelles

Special qualification required
Heure actuelle UTC:
Heure actuelle locale:
METAR: KOKB 212252Z AUTO 25008KT 8SM CLR 26/19 A3000 RMK AO2 SLP159 T02610194
Voir NOTAMs / SUP AIP / TFR affectant cet aéroport [VIEW]
Fréquences de communication: [VIEW]

Pistes:

Coordonnées de l'aéroport

Adresse: Oceanside United States

Vue satellite de CN30